sensor_id;sensor_type;location;lat;lon;timestamp;temperature;humidity
54938;DHT22;52756;52.826;6.214;2024-03-08T00:00:09;3.10;89.20
54938;DHT22;52756;52.826;6.214;2024-03-08T00:02:40;2.70;89.00
54938;DHT22;52756;52.826;6.214;2024-03-08T00:05:07;2.70;88.90
54938;DHT22;52756;52.826;6.214;2024-03-08T00:07:35;2.70;89.00
54938;DHT22;52756;52.826;6.214;2024-03-08T00:10:02;2.70;88.90
54938;DHT22;52756;52.826;6.214;2024-03-08T00:12:28;2.70;89.00
54938;DHT22;52756;52.826;6.214;2024-03-08T00:14:54;2.80;89.00
54938;DHT22;52756;52.826;6.214;2024-03-08T00:17:20;2.70;89.00
54938;DHT22;52756;52.826;6.214;2024-03-08T00:19:48;2.70;89.00
54938;DHT22;52756;52.826;6.214;2024-03-08T00:22:15;3.00;89.20
54938;DHT22;52756;52.826;6.214;2024-03-08T00:24:42;3.40;89.50
54938;DHT22;52756;52.826;6.214;2024-03-08T00:27:07;3.30;89.40
54938;DHT22;52756;52.826;6.214;2024-03-08T00:29:34;2.60;89.00
54938;DHT22;52756;52.826;6.214;2024-03-08T00:32:00;3.40;89.40
54938;DHT22;52756;52.826;6.214;2024-03-08T00:34:26;2.60;89.00
54938;DHT22;52756;52.826;6.214;2024-03-08T00:36:52;2.60;89.00
54938;DHT22;52756;52.826;6.214;2024-03-08T00:39:18;2.50;89.00
54938;DHT22;52756;52.826;6.214;2024-03-08T00:41:46;2.50;89.00
54938;DHT22;52756;52.826;6.214;2024-03-08T00:44:12;2.50;89.10
54938;DHT22;52756;52.826;6.214;2024-03-08T00:46:37;2.50;89.10
54938;DHT22;52756;52.826;6.214;2024-03-08T00:49:03;2.50;89.10
54938;DHT22;52756;52.826;6.214;2024-03-08T00:51:29;2.50;89.10
54938;DHT22;52756;52.826;6.214;2024-03-08T00:53:55;2.40;89.20
54938;DHT22;52756;52.826;6.214;2024-03-08T00:56:20;2.70;89.40
54938;DHT22;52756;52.826;6.214;2024-03-08T00:58:46;2.50;89.30
54938;DHT22;52756;52.826;6.214;2024-03-08T01:01:13;2.70;89.40
54938;DHT22;52756;52.826;6.214;2024-03-08T01:03:45;2.50;89.40
54938;DHT22;52756;52.826;6.214;2024-03-08T01:06:11;2.40;89.40
54938;DHT22;52756;52.826;6.214;2024-03-08T01:08:37;2.40;89.40
54938;DHT22;52756;52.826;6.214;2024-03-08T01:11:08;3.20;89.80
54938;DHT22;52756;52.826;6.214;2024-03-08T01:13:37;2.30;89.40
54938;DHT22;52756;52.826;6.214;2024-03-08T01:16:04;2.50;89.50
54938;DHT22;52756;52.826;6.214;2024-03-08T01:18:30;2.30;89.40
54938;DHT22;52756;52.826;6.214;2024-03-08T01:20:55;2.80;89.70
54938;DHT22;52756;52.826;6.214;2024-03-08T01:23:21;2.30;89.40
54938;DHT22;52756;52.826;6.214;2024-03-08T01:25:47;2.30;89.30
54938;DHT22;52756;52.826;6.214;2024-03-08T01:28:25;2.30;89.40
54938;DHT22;52756;52.826;6.214;2024-03-08T01:30:51;2.30;89.50
54938;DHT22;52756;52.826;6.214;2024-03-08T01:33:24;2.30;89.40
54938;DHT22;52756;52.826;6.214;2024-03-08T01:35:51;2.30;89.50
54938;DHT22;52756;52.826;6.214;2024-03-08T01:38:17;2.30;89.60
54938;DHT22;52756;52.826;6.214;2024-03-08T01:40:42;2.20;89.60
54938;DHT22;52756;52.826;6.214;2024-03-08T01:43:18;2.30;89.70
54938;DHT22;52756;52.826;6.214;2024-03-08T01:45:44;2.30;89.80
54938;DHT22;52756;52.826;6.214;2024-03-08T01:48:10;2.20;89.60
54938;DHT22;52756;52.826;6.214;2024-03-08T01:50:35;2.60;89.90
54938;DHT22;52756;52.826;6.214;2024-03-08T01:53:02;2.20;89.70
54938;DHT22;52756;52.826;6.214;2024-03-08T01:55:28;2.20;89.60
54938;DHT22;52756;52.826;6.214;2024-03-08T01:57:54;2.50;89.80
54938;DHT22;52756;52.826;6.214;2024-03-08T02:00:21;2.20;89.60
54938;DHT22;52756;52.826;6.214;2024-03-08T02:02:46;2.20;89.60
54938;DHT22;52756;52.826;6.214;2024-03-08T02:05:13;2.20;89.60
54938;DHT22;52756;52.826;6.214;2024-03-08T02:07:42;2.20;89.70
54938;DHT22;52756;52.826;6.214;2024-03-08T02:10:10;2.10;89.70
54938;DHT22;52756;52.826;6.214;2024-03-08T02:12:36;2.10;89.70
54938;DHT22;52756;52.826;6.214;2024-03-08T02:15:03;1.70;89.40
54938;DHT22;52756;52.826;6.214;2024-03-08T02:17:29;2.10;89.70
54938;DHT22;52756;52.826;6.214;2024-03-08T02:19:55;2.10;89.70
54938;DHT22;52756;52.826;6.214;2024-03-08T02:22:22;2.10;89.70
54938;DHT22;52756;52.826;6.214;2024-03-08T02:24:47;2.10;89.80
54938;DHT22;52756;52.826;6.214;2024-03-08T02:27:13;2.10;89.90
54938;DHT22;52756;52.826;6.214;2024-03-08T02:29:39;2.00;89.80
54938;DHT22;52756;52.826;6.214;2024-03-08T02:32:09;2.10;89.80
54938;DHT22;52756;52.826;6.214;2024-03-08T02:34:34;2.10;89.80
54938;DHT22;52756;52.826;6.214;2024-03-08T02:37:00;2.00;89.70
54938;DHT22;52756;52.826;6.214;2024-03-08T02:39:26;2.00;89.80
54938;DHT22;52756;52.826;6.214;2024-03-08T02:41:51;2.00;89.80
54938;DHT22;52756;52.826;6.214;2024-03-08T02:44:17;2.00;89.70
54938;DHT22;52756;52.826;6.214;2024-03-08T02:46:42;2.00;89.80
54938;DHT22;52756;52.826;6.214;2024-03-08T02:49:08;2.00;89.80
54938;DHT22;52756;52.826;6.214;2024-03-08T02:51:33;2.00;89.70
54938;DHT22;52756;52.826;6.214;2024-03-08T02:54:00;2.00;89.70
54938;DHT22;52756;52.826;6.214;2024-03-08T02:56:26;2.00;89.70
54938;DHT22;52756;52.826;6.214;2024-03-08T02:58:52;2.00;89.70
54938;DHT22;52756;52.826;6.214;2024-03-08T03:01:17;2.00;89.60
54938;DHT22;52756;52.826;6.214;2024-03-08T03:03:45;1.90;89.60
54938;DHT22;52756;52.826;6.214;2024-03-08T03:06:12;2.00;89.60
54938;DHT22;52756;52.826;6.214;2024-03-08T03:08:38;1.90;89.40
54938;DHT22;52756;52.826;6.214;2024-03-08T03:11:04;2.00;89.50
54938;DHT22;52756;52.826;6.214;2024-03-08T03:13:29;2.00;89.40
54938;DHT22;52756;52.826;6.214;2024-03-08T03:15:55;1.90;89.40
54938;DHT22;52756;52.826;6.214;2024-03-08T03:18:23;1.90;89.30
54938;DHT22;52756;52.826;6.214;2024-03-08T03:20:49;1.90;89.30
54938;DHT22;52756;52.826;6.214;2024-03-08T03:23:14;1.90;89.30
54938;DHT22;52756;52.826;6.214;2024-03-08T03:25:47;1.90;89.30
54938;DHT22;52756;52.826;6.214;2024-03-08T03:28:13;1.90;89.40
54938;DHT22;52756;52.826;6.214;2024-03-08T03:30:47;1.90;89.30
54938;DHT22;52756;52.826;6.214;2024-03-08T03:33:12;1.90;89.20
54938;DHT22;52756;52.826;6.214;2024-03-08T03:35:40;1.80;89.10
54938;DHT22;52756;52.826;6.214;2024-03-08T03:38:06;1.90;89.20
54938;DHT22;52756;52.826;6.214;2024-03-08T03:40:36;1.80;89.10
54938;DHT22;52756;52.826;6.214;2024-03-08T03:43:02;1.80;89.20
54938;DHT22;52756;52.826;6.214;2024-03-08T03:45:29;1.80;89.10
54938;DHT22;52756;52.826;6.214;2024-03-08T03:47:55;1.80;89.00
54938;DHT22;52756;52.826;6.214;2024-03-08T03:50:21;1.80;89.00
54938;DHT22;52756;52.826;6.214;2024-03-08T03:52:47;1.80;88.90
54938;DHT22;52756;52.826;6.214;2024-03-08T03:55:14;1.80;89.00
54938;DHT22;52756;52.826;6.214;2024-03-08T03:57:40;1.80;88.90
54938;DHT22;52756;52.826;6.214;2024-03-08T04:00:06;1.80;88.90
54938;DHT22;52756;52.826;6.214;2024-03-08T04:02:39;1.80;88.90
54938;DHT22;52756;52.826;6.214;2024-03-08T04:05:10;1.80;88.90
54938;DHT22;52756;52.826;6.214;2024-03-08T04:07:37;1.80;88.80
54938;DHT22;52756;52.826;6.214;2024-03-08T04:10:03;1.80;88.80
54938;DHT22;52756;52.826;6.214;2024-03-08T04:12:35;1.50;88.60
54938;DHT22;52756;52.826;6.214;2024-03-08T04:15:01;1.80;88.70
54938;DHT22;52756;52.826;6.214;2024-03-08T04:17:27;1.70;88.60
54938;DHT22;52756;52.826;6.214;2024-03-08T04:19:54;1.80;88.70
54938;DHT22;52756;52.826;6.214;2024-03-08T04:22:20;1.70;88.60
54938;DHT22;52756;52.826;6.214;2024-03-08T04:24:48;1.70;88.60
54938;DHT22;52756;52.826;6.214;2024-03-08T04:27:14;1.70;88.60
54938;DHT22;52756;52.826;6.214;2024-03-08T04:29:40;1.70;88.60
54938;DHT22;52756;52.826;6.214;2024-03-08T04:32:07;1.70;88.60
54938;DHT22;52756;52.826;6.214;2024-03-08T04:34:34;1.70;88.60
54938;DHT22;52756;52.826;6.214;2024-03-08T04:37:01;1.70;88.60
54938;DHT22;52756;52.826;6.214;2024-03-08T04:39:27;1.60;88.50
54938;DHT22;52756;52.826;6.214;2024-03-08T04:41:59;1.70;88.60
54938;DHT22;52756;52.826;6.214;2024-03-08T04:44:26;2.00;88.80
54938;DHT22;52756;52.826;6.214;2024-03-08T04:46:52;1.50;88.40
54938;DHT22;52756;52.826;6.214;2024-03-08T04:49:18;1.80;88.60
54938;DHT22;52756;52.826;6.214;2024-03-08T04:51:43;1.60;88.50
54938;DHT22;52756;52.826;6.214;2024-03-08T04:54:10;1.50;88.50
54938;DHT22;52756;52.826;6.214;2024-03-08T04:56:36;2.20;88.90
54938;DHT22;52756;52.826;6.214;2024-03-08T04:59:02;1.50;88.50
54938;DHT22;52756;52.826;6.214;2024-03-08T05:01:28;1.50;88.60
54938;DHT22;52756;52.826;6.214;2024-03-08T05:03:54;1.80;88.80
54938;DHT22;52756;52.826;6.214;2024-03-08T05:06:21;1.70;88.70
54938;DHT22;52756;52.826;6.214;2024-03-08T05:08:46;1.70;88.70
54938;DHT22;52756;52.826;6.214;2024-03-08T05:11:13;1.90;88.80
54938;DHT22;52756;52.826;6.214;2024-03-08T05:13:40;1.80;88.70
54938;DHT22;52756;52.826;6.214;2024-03-08T05:16:06;1.40;88.50
54938;DHT22;52756;52.826;6.214;2024-03-08T05:18:33;1.40;88.50
54938;DHT22;52756;52.826;6.214;2024-03-08T05:20:59;1.30;88.50
54938;DHT22;52756;52.826;6.214;2024-03-08T05:23:25;1.80;88.80
54938;DHT22;52756;52.826;6.214;2024-03-08T05:25:51;1.90;88.90
54938;DHT22;52756;52.826;6.214;2024-03-08T05:28:16;1.20;88.50
54938;DHT22;52756;52.826;6.214;2024-03-08T05:30:42;2.10;89.20
54938;DHT22;52756;52.826;6.214;2024-03-08T05:33:08;1.30;88.70
54938;DHT22;52756;52.826;6.214;2024-03-08T05:35:40;1.80;89.00
54938;DHT22;52756;52.826;6.214;2024-03-08T05:38:08;1.10;88.50
54938;DHT22;52756;52.826;6.214;2024-03-08T05:40:35;1.20;88.70
54938;DHT22;52756;52.826;6.214;2024-03-08T05:43:01;1.90;89.10
54938;DHT22;52756;52.826;6.214;2024-03-08T05:45:27;1.60;88.90
54938;DHT22;52756;52.826;6.214;2024-03-08T05:47:53;1.30;88.70
54938;DHT22;52756;52.826;6.214;2024-03-08T05:50:18;1.40;88.70
54938;DHT22;52756;52.826;6.214;2024-03-08T05:52:49;1.20;88.60
54938;DHT22;52756;52.826;6.214;2024-03-08T05:55:16;1.20;88.60
54938;DHT22;52756;52.826;6.214;2024-03-08T05:57:42;1.30;88.70
54938;DHT22;52756;52.826;6.214;2024-03-08T06:00:09;1.20;88.70
54938;DHT22;52756;52.826;6.214;2024-03-08T06:02:37;0.60;88.40
54938;DHT22;52756;52.826;6.214;2024-03-08T06:05:09;1.00;88.60
54938;DHT22;52756;52.826;6.214;2024-03-08T06:07:36;0.90;88.60
54938;DHT22;52756;52.826;6.214;2024-03-08T06:10:02;1.10;88.70
54938;DHT22;52756;52.826;6.214;2024-03-08T06:12:28;1.10;88.70
54938;DHT22;52756;52.826;6.214;2024-03-08T06:14:58;1.30;88.80
54938;DHT22;52756;52.826;6.214;2024-03-08T06:17:27;1.70;89.20
54938;DHT22;52756;52.826;6.214;2024-03-08T06:19:53;1.40;89.00
54938;DHT22;52756;52.826;6.214;2024-03-08T06:22:20;1.10;88.90
54938;DHT22;52756;52.826;6.214;2024-03-08T06:24:46;1.00;88.80
54938;DHT22;52756;52.826;6.214;2024-03-08T06:27:12;1.80;89.30
54938;DHT22;52756;52.826;6.214;2024-03-08T06:29:39;1.10;88.80
54938;DHT22;52756;52.826;6.214;2024-03-08T06:32:08;1.30;89.00
54938;DHT22;52756;52.826;6.214;2024-03-08T06:34:34;1.00;88.80
54938;DHT22;52756;52.826;6.214;2024-03-08T06:37:02;1.20;88.90
54938;DHT22;52756;52.826;6.214;2024-03-08T06:39:28;0.90;88.80
54938;DHT22;52756;52.826;6.214;2024-03-08T06:42:00;1.40;89.00
54938;DHT22;52756;52.826;6.214;2024-03-08T06:44:25;1.50;89.10
54938;DHT22;52756;52.826;6.214;2024-03-08T06:46:52;1.20;88.90
54938;DHT22;52756;52.826;6.214;2024-03-08T06:49:18;1.10;88.80
54938;DHT22;52756;52.826;6.214;2024-03-08T06:51:45;1.20;89.00
54938;DHT22;52756;52.826;6.214;2024-03-08T06:54:11;1.90;89.40
54938;DHT22;52756;52.826;6.214;2024-03-08T06:56:36;1.50;89.20
54938;DHT22;52756;52.826;6.214;2024-03-08T06:59:02;1.70;89.20
54938;DHT22;52756;52.826;6.214;2024-03-08T07:01:31;1.30;89.00
54938;DHT22;52756;52.826;6.214;2024-03-08T07:03:59;1.20;89.00
54938;DHT22;52756;52.826;6.214;2024-03-08T07:06:27;1.20;88.90
54938;DHT22;52756;52.826;6.214;2024-03-08T07:08:54;1.20;88.80
54938;DHT22;52756;52.826;6.214;2024-03-08T07:11:20;1.30;88.70
54938;DHT22;52756;52.826;6.214;2024-03-08T07:13:46;1.30;88.80
54938;DHT22;52756;52.826;6.214;2024-03-08T07:16:12;1.40;88.90
54938;DHT22;52756;52.826;6.214;2024-03-08T07:18:38;1.40;88.70
54938;DHT22;52756;52.826;6.214;2024-03-08T07:21:09;1.40;88.50
54938;DHT22;52756;52.826;6.214;2024-03-08T07:23:35;1.50;88.90
54938;DHT22;52756;52.826;6.214;2024-03-08T07:26:23;1.50;88.50
54938;DHT22;52756;52.826;6.214;2024-03-08T07:28:48;1.60;88.60
54938;DHT22;52756;52.826;6.214;2024-03-08T07:31:14;1.60;88.50
54938;DHT22;52756;52.826;6.214;2024-03-08T07:33:52;1.60;88.30
54938;DHT22;52756;52.826;6.214;2024-03-08T07:36:19;1.70;88.30
54938;DHT22;52756;52.826;6.214;2024-03-08T07:38:44;1.70;88.30
54938;DHT22;52756;52.826;6.214;2024-03-08T07:41:12;1.80;88.20
54938;DHT22;52756;52.826;6.214;2024-03-08T07:43:38;1.90;88.10
54938;DHT22;52756;52.826;6.214;2024-03-08T07:46:04;2.40;88.20
54938;DHT22;52756;52.826;6.214;2024-03-08T07:48:29;2.00;87.60
54938;DHT22;52756;52.826;6.214;2024-03-08T07:50:56;2.10;87.50
54938;DHT22;52756;52.826;6.214;2024-03-08T07:53:22;2.10;87.30
54938;DHT22;52756;52.826;6.214;2024-03-08T07:55:49;2.20;86.80
54938;DHT22;52756;52.826;6.214;2024-03-08T07:58:15;2.30;86.80
54938;DHT22;52756;52.826;6.214;2024-03-08T08:00:42;2.30;86.60
54938;DHT22;52756;52.826;6.214;2024-03-08T08:03:08;2.40;86.20
54938;DHT22;52756;52.826;6.214;2024-03-08T08:05:36;2.50;86.10
54938;DHT22;52756;52.826;6.214;2024-03-08T08:08:04;2.60;85.80
54938;DHT22;52756;52.826;6.214;2024-03-08T08:10:32;2.70;85.30
54938;DHT22;52756;52.826;6.214;2024-03-08T08:12:58;2.80;84.50
54938;DHT22;52756;52.826;6.214;2024-03-08T08:15:24;2.90;84.50
54938;DHT22;52756;52.826;6.214;2024-03-08T08:17:50;3.00;84.00
54938;DHT22;52756;52.826;6.214;2024-03-08T08:20:17;3.10;83.50
54938;DHT22;52756;52.826;6.214;2024-03-08T08:22:44;3.20;82.40
54938;DHT22;52756;52.826;6.214;2024-03-08T08:25:09;3.30;82.40
54938;DHT22;52756;52.826;6.214;2024-03-08T08:27:38;3.40;82.00
54938;DHT22;52756;52.826;6.214;2024-03-08T08:30:10;3.60;81.50
54938;DHT22;52756;52.826;6.214;2024-03-08T08:32:37;3.60;80.70
54938;DHT22;52756;52.826;6.214;2024-03-08T08:35:03;3.70;80.40
54938;DHT22;52756;52.826;6.214;2024-03-08T08:37:30;3.80;80.00
54938;DHT22;52756;52.826;6.214;2024-03-08T08:39:57;4.00;79.80
54938;DHT22;52756;52.826;6.214;2024-03-08T08:42:23;4.00;78.80
54938;DHT22;52756;52.826;6.214;2024-03-08T08:44:49;4.10;78.30
54938;DHT22;52756;52.826;6.214;2024-03-08T08:47:16;4.20;77.70
54938;DHT22;52756;52.826;6.214;2024-03-08T08:49:45;4.30;78.00
54938;DHT22;52756;52.826;6.214;2024-03-08T08:52:15;4.70;77.20
54938;DHT22;52756;52.826;6.214;2024-03-08T08:54:42;4.50;77.00
54938;DHT22;52756;52.826;6.214;2024-03-08T08:57:08;4.60;75.90
54938;DHT22;52756;52.826;6.214;2024-03-08T08:59:34;4.60;75.50
54938;DHT22;52756;52.826;6.214;2024-03-08T09:02:04;4.70;75.70
54938;DHT22;52756;52.826;6.214;2024-03-08T09:04:30;4.90;75.10
54938;DHT22;52756;52.826;6.214;2024-03-08T09:06:58;4.90;74.30
54938;DHT22;52756;52.826;6.214;2024-03-08T09:09:24;4.90;74.10
54938;DHT22;52756;52.826;6.214;2024-03-08T09:11:51;5.00;74.10
54938;DHT22;52756;52.826;6.214;2024-03-08T09:14:16;5.10;73.90
54938;DHT22;52756;52.826;6.214;2024-03-08T09:16:42;5.10;74.30
54938;DHT22;52756;52.826;6.214;2024-03-08T09:19:08;5.20;74.10
54938;DHT22;52756;52.826;6.214;2024-03-08T09:21:36;5.30;73.60
54938;DHT22;52756;52.826;6.214;2024-03-08T09:24:02;5.40;73.70
54938;DHT22;52756;52.826;6.214;2024-03-08T09:26:28;5.50;72.70
54938;DHT22;52756;52.826;6.214;2024-03-08T09:28:53;5.50;72.60
54938;DHT22;52756;52.826;6.214;2024-03-08T09:31:21;5.60;72.00
54938;DHT22;52756;52.826;6.214;2024-03-08T09:33:46;5.70;72.00
54938;DHT22;52756;52.826;6.214;2024-03-08T09:36:15;5.70;72.00
54938;DHT22;52756;52.826;6.214;2024-03-08T09:38:40;5.80;72.90
54938;DHT22;52756;52.826;6.214;2024-03-08T09:41:09;6.00;72.20
54938;DHT22;52756;52.826;6.214;2024-03-08T09:43:38;6.40;70.10
54938;DHT22;52756;52.826;6.214;2024-03-08T09:46:04;6.10;69.00
54938;DHT22;52756;52.826;6.214;2024-03-08T09:48:32;6.10;67.90
54938;DHT22;52756;52.826;6.214;2024-03-08T09:50:58;6.20;67.10
54938;DHT22;52756;52.826;6.214;2024-03-08T09:53:24;6.20;66.20
54938;DHT22;52756;52.826;6.214;2024-03-08T09:55:50;6.20;66.50
54938;DHT22;52756;52.826;6.214;2024-03-08T09:58:16;6.20;67.60
54938;DHT22;52756;52.826;6.214;2024-03-08T10:00:54;6.20;68.10
54938;DHT22;52756;52.826;6.214;2024-03-08T10:03:20;6.20;68.40
54938;DHT22;52756;52.826;6.214;2024-03-08T10:05:46;6.30;68.70
54938;DHT22;52756;52.826;6.214;2024-03-08T10:08:12;6.30;68.70
54938;DHT22;52756;52.826;6.214;2024-03-08T10:10:39;6.40;68.30
54938;DHT22;52756;52.826;6.214;2024-03-08T10:13:06;6.40;66.80
54938;DHT22;52756;52.826;6.214;2024-03-08T10:15:32;6.40;66.50
54938;DHT22;52756;52.826;6.214;2024-03-08T10:18:00;6.40;66.80
54938;DHT22;52756;52.826;6.214;2024-03-08T10:20:29;6.50;67.30
54938;DHT22;52756;52.826;6.214;2024-03-08T10:22:59;6.50;67.20
54938;DHT22;52756;52.826;6.214;2024-03-08T10:25:25;6.50;66.20
54938;DHT22;52756;52.826;6.214;2024-03-08T10:27:51;6.60;65.80
54938;DHT22;52756;52.826;6.214;2024-03-08T10:30:16;6.60;66.00
54938;DHT22;52756;52.826;6.214;2024-03-08T10:32:47;6.60;66.10
54938;DHT22;52756;52.826;6.214;2024-03-08T10:35:13;6.60;66.00
54938;DHT22;52756;52.826;6.214;2024-03-08T10:37:50;6.70;65.60
54938;DHT22;52756;52.826;6.214;2024-03-08T10:40:24;6.70;66.10
54938;DHT22;52756;52.826;6.214;2024-03-08T10:45:38;6.80;66.60
54938;DHT22;52756;52.826;6.214;2024-03-08T10:48:30;6.80;66.60
54938;DHT22;52756;52.826;6.214;2024-03-08T10:51:02;6.90;67.30
54938;DHT22;52756;52.826;6.214;2024-03-08T10:53:29;6.90;66.80
54938;DHT22;52756;52.826;6.214;2024-03-08T10:55:56;7.00;66.80
54938;DHT22;52756;52.826;6.214;2024-03-08T10:58:28;7.00;67.20
54938;DHT22;52756;52.826;6.214;2024-03-08T11:00:55;7.10;67.40
54938;DHT22;52756;52.826;6.214;2024-03-08T11:08:41;7.30;66.80
54938;DHT22;52756;52.826;6.214;2024-03-08T11:11:33;7.40;66.80
54938;DHT22;52756;52.826;6.214;2024-03-08T11:14:03;7.50;66.50
54938;DHT22;52756;52.826;6.214;2024-03-08T11:21:30;7.70;66.40
54938;DHT22;52756;52.826;6.214;2024-03-08T11:24:00;7.70;66.30
54938;DHT22;52756;52.826;6.214;2024-03-08T11:26:26;7.80;65.90
54938;DHT22;52756;52.826;6.214;2024-03-08T11:28:52;7.80;64.60
54938;DHT22;52756;52.826;6.214;2024-03-08T11:31:22;7.90;65.30
54938;DHT22;52756;52.826;6.214;2024-03-08T11:33:48;7.90;64.70
54938;DHT22;52756;52.826;6.214;2024-03-08T11:36:22;8.00;64.20
54938;DHT22;52756;52.826;6.214;2024-03-08T11:38:50;8.00;64.00
54938;DHT22;52756;52.826;6.214;2024-03-08T11:41:22;8.00;64.30
54938;DHT22;52756;52.826;6.214;2024-03-08T11:43:49;8.10;64.00
54938;DHT22;52756;52.826;6.214;2024-03-08T11:46:17;8.10;64.20
54938;DHT22;52756;52.826;6.214;2024-03-08T11:48:44;8.20;64.80
54938;DHT22;52756;52.826;6.214;2024-03-08T11:51:13;8.20;64.40
54938;DHT22;52756;52.826;6.214;2024-03-08T11:53:40;8.30;63.60
54938;DHT22;52756;52.826;6.214;2024-03-08T11:56:10;8.30;62.90
54938;DHT22;52756;52.826;6.214;2024-03-08T11:58:37;8.70;62.30
54938;DHT22;52756;52.826;6.214;2024-03-08T12:01:11;8.40;62.20
54938;DHT22;52756;52.826;6.214;2024-03-08T12:03:42;8.40;62.50
54938;DHT22;52756;52.826;6.214;2024-03-08T12:06:09;8.40;61.70
54938;DHT22;52756;52.826;6.214;2024-03-08T12:08:37;8.70;62.20
54938;DHT22;52756;52.826;6.214;2024-03-08T12:11:04;8.50;61.80
54938;DHT22;52756;52.826;6.214;2024-03-08T12:13:32;8.40;62.00
54938;DHT22;52756;52.826;6.214;2024-03-08T12:16:04;8.50;60.50
54938;DHT22;52756;52.826;6.214;2024-03-08T12:18:34;8.50;59.80
54938;DHT22;52756;52.826;6.214;2024-03-08T12:21:10;8.60;60.60
54938;DHT22;52756;52.826;6.214;2024-03-08T12:23:38;8.60;60.30
54938;DHT22;52756;52.826;6.214;2024-03-08T12:26:17;8.70;59.40
54938;DHT22;52756;52.826;6.214;2024-03-08T12:28:44;8.70;58.90
54938;DHT22;52756;52.826;6.214;2024-03-08T12:31:12;8.60;58.90
54938;DHT22;52756;52.826;6.214;2024-03-08T12:36:15;8.70;58.60
54938;DHT22;52756;52.826;6.214;2024-03-08T12:38:44;9.40;58.50
54938;DHT22;52756;52.826;6.214;2024-03-08T12:41:16;8.90;57.90
54938;DHT22;52756;52.826;6.214;2024-03-08T12:43:46;8.80;58.30
54938;DHT22;52756;52.826;6.214;2024-03-08T12:46:17;8.80;57.90
54938;DHT22;52756;52.826;6.214;2024-03-08T12:48:45;8.80;58.50
54938;DHT22;52756;52.826;6.214;2024-03-08T12:51:16;8.80;58.20
54938;DHT22;52756;52.826;6.214;2024-03-08T12:53:44;8.80;58.30
54938;DHT22;52756;52.826;6.214;2024-03-08T12:56:10;8.90;58.50
54938;DHT22;52756;52.826;6.214;2024-03-08T12:58:36;8.90;58.70
54938;DHT22;52756;52.826;6.214;2024-03-08T13:01:05;8.90;58.00
54938;DHT22;52756;52.826;6.214;2024-03-08T13:03:33;8.90;57.50
54938;DHT22;52756;52.826;6.214;2024-03-08T13:06:04;9.00;58.90
54938;DHT22;52756;52.826;6.214;2024-03-08T13:08:37;9.00;59.20
54938;DHT22;52756;52.826;6.214;2024-03-08T13:11:07;9.00;59.00
54938;DHT22;52756;52.826;6.214;2024-03-08T13:13:33;9.10;59.00
54938;DHT22;52756;52.826;6.214;2024-03-08T13:16:04;9.20;58.70
54938;DHT22;52756;52.826;6.214;2024-03-08T13:18:33;9.20;58.00
54938;DHT22;52756;52.826;6.214;2024-03-08T13:20:59;9.20;55.50
54938;DHT22;52756;52.826;6.214;2024-03-08T13:23:24;9.30;56.60
54938;DHT22;52756;52.826;6.214;2024-03-08T13:25:50;9.30;56.30
54938;DHT22;52756;52.826;6.214;2024-03-08T13:28:16;9.50;56.00
54938;DHT22;52756;52.826;6.214;2024-03-08T13:30:45;9.30;55.90
54938;DHT22;52756;52.826;6.214;2024-03-08T13:33:11;9.30;55.90
54938;DHT22;52756;52.826;6.214;2024-03-08T13:35:36;9.40;55.70
54938;DHT22;52756;52.826;6.214;2024-03-08T13:38:03;9.40;55.40
54938;DHT22;52756;52.826;6.214;2024-03-08T13:40:29;9.50;54.60
54938;DHT22;52756;52.826;6.214;2024-03-08T13:42:56;10.00;55.20
54938;DHT22;52756;52.826;6.214;2024-03-08T13:45:22;9.40;55.40
54938;DHT22;52756;52.826;6.214;2024-03-08T13:47:50;9.40;56.10
54938;DHT22;52756;52.826;6.214;2024-03-08T13:50:19;9.40;54.80
54938;DHT22;52756;52.826;6.214;2024-03-08T13:52:49;9.50;54.80
54938;DHT22;52756;52.826;6.214;2024-03-08T13:55:23;9.50;53.70
54938;DHT22;52756;52.826;6.214;2024-03-08T13:57:52;9.50;53.60
54938;DHT22;52756;52.826;6.214;2024-03-08T14:00:18;9.50;54.10
54938;DHT22;52756;52.826;6.214;2024-03-08T14:02:48;9.50;54.10
54938;DHT22;52756;52.826;6.214;2024-03-08T14:05:14;9.60;53.60
54938;DHT22;52756;52.826;6.214;2024-03-08T14:07:41;9.60;54.70
54938;DHT22;52756;52.826;6.214;2024-03-08T14:10:07;9.60;55.30
54938;DHT22;52756;52.826;6.214;2024-03-08T14:12:35;9.60;55.10
54938;DHT22;52756;52.826;6.214;2024-03-08T14:15:01;9.60;54.50
54938;DHT22;52756;52.826;6.214;2024-03-08T14:17:27;9.60;54.70
54938;DHT22;52756;52.826;6.214;2024-03-08T14:19:56;9.60;54.70
54938;DHT22;52756;52.826;6.214;2024-03-08T14:22:22;9.60;54.60
54938;DHT22;52756;52.826;6.214;2024-03-08T14:24:48;9.60;53.20
54938;DHT22;52756;52.826;6.214;2024-03-08T14:27:15;9.60;53.20
54938;DHT22;52756;52.826;6.214;2024-03-08T14:29:42;9.60;54.30
54938;DHT22;52756;52.826;6.214;2024-03-08T14:32:09;9.60;54.60
54938;DHT22;52756;52.826;6.214;2024-03-08T14:34:35;9.60;54.80
54938;DHT22;52756;52.826;6.214;2024-03-08T14:37:01;9.70;53.80
54938;DHT22;52756;52.826;6.214;2024-03-08T14:39:30;9.70;53.70
54938;DHT22;52756;52.826;6.214;2024-03-08T14:41:56;9.70;52.90
54938;DHT22;52756;52.826;6.214;2024-03-08T14:44:24;9.70;53.00
54938;DHT22;52756;52.826;6.214;2024-03-08T14:46:55;9.60;52.90
54938;DHT22;52756;52.826;6.214;2024-03-08T14:49:22;9.60;52.70
54938;DHT22;52756;52.826;6.214;2024-03-08T14:51:48;9.60;51.60
54938;DHT22;52756;52.826;6.214;2024-03-08T14:54:13;9.60;51.80
54938;DHT22;52756;52.826;6.214;2024-03-08T14:56:39;9.50;52.00
54938;DHT22;52756;52.826;6.214;2024-03-08T14:59:08;9.50;52.00
54938;DHT22;52756;52.826;6.214;2024-03-08T15:01:34;9.50;52.60
54938;DHT22;52756;52.826;6.214;2024-03-08T15:04:02;9.60;51.90
54938;DHT22;52756;52.826;6.214;2024-03-08T15:06:43;9.40;52.10
54938;DHT22;52756;52.826;6.214;2024-03-08T15:09:09;9.50;51.70
54938;DHT22;52756;52.826;6.214;2024-03-08T15:11:47;9.50;52.00
54938;DHT22;52756;52.826;6.214;2024-03-08T15:14:15;9.50;52.20
54938;DHT22;52756;52.826;6.214;2024-03-08T15:16:42;9.40;52.90
54938;DHT22;52756;52.826;6.214;2024-03-08T15:19:08;9.40;53.70
54938;DHT22;52756;52.826;6.214;2024-03-08T15:21:34;9.40;54.30
54938;DHT22;52756;52.826;6.214;2024-03-08T15:24:01;9.40;54.50
54938;DHT22;52756;52.826;6.214;2024-03-08T15:26:28;9.40;54.90
54938;DHT22;52756;52.826;6.214;2024-03-08T15:28:56;9.50;54.00
54938;DHT22;52756;52.826;6.214;2024-03-08T15:31:22;9.40;53.90
54938;DHT22;52756;52.826;6.214;2024-03-08T15:33:50;10.00;54.30
54938;DHT22;52756;52.826;6.214;2024-03-08T15:36:29;9.40;53.90
54938;DHT22;52756;52.826;6.214;2024-03-08T15:38:59;9.40;54.20
54938;DHT22;52756;52.826;6.214;2024-03-08T15:41:24;9.30;54.00
54938;DHT22;52756;52.826;6.214;2024-03-08T15:43:52;9.40;53.90
54938;DHT22;52756;52.826;6.214;2024-03-08T15:46:18;9.30;54.00
54938;DHT22;52756;52.826;6.214;2024-03-08T15:48:48;9.30;54.20
54938;DHT22;52756;52.826;6.214;2024-03-08T15:51:14;9.30;54.60
54938;DHT22;52756;52.826;6.214;2024-03-08T15:53:43;9.30;54.40
54938;DHT22;52756;52.826;6.214;2024-03-08T15:56:10;9.20;54.50
54938;DHT22;52756;52.826;6.214;2024-03-08T15:58:35;9.30;54.60
54938;DHT22;52756;52.826;6.214;2024-03-08T16:01:06;9.90;54.60